Time;durP1;ratioP1;P1;durP2;ratioP2;P2;SDS_P1;SDS_P2;PMS_P1;PMS_P2;Temp;Humidity;BMP_temperature;BMP_pressure;BME280_temperature;BME280_humidity;BME280_pressure;Samples;Min_cycle;Max_cycle;Signal;HPM_P1;HPM_P2
2022/11/14 00:01:36;;;;;;;6.10;5.23;;;;;;;3.29;57.21;100582.13;10504939;28;20218;-83
2022/11/14 00:07:17;;;;;;;7.70;5.03;;;;;;;2.95;58.06;100583.81;10520914;28;20183;-85
2022/11/14 00:12:58;;;;;;;7.00;5.37;;;;;;;2.67;59.13;100580.44;10523265;28;20195;-84
2022/11/14 00:18:38;;;;;;;9.77;5.07;;;;;;;3.08;58.16;100580.47;10515037;28;20203;-85
2022/11/14 00:24:19;;;;;;;5.50;5.00;;;;;;;2.91;57.94;100579.91;10513909;28;20874;-85
2022/11/14 00:30:00;;;;;;;6.53;5.40;;;;;;;2.13;60.69;100590.31;10513918;28;20227;-84
2022/11/14 00:35:40;;;;;;;5.83;4.93;;;;;;;2.76;59.14;100579.91;10503296;28;20219;-84
2022/11/14 00:41:22;;;;;;;7.27;5.03;;;;;;;3.04;57.93;100570.97;10518730;28;20195;-84
2022/11/14 00:47:02;;;;;;;6.37;5.07;;;;;;;2.82;58.93;100562.94;10512597;28;20198;-81
2022/11/14 00:52:43;;;;;;;5.63;4.70;;;;;;;2.46;59.96;100567.63;10521461;28;20206;-84
2022/11/14 00:58:23;;;;;;;5.70;4.73;;;;;;;2.77;58.31;100548.19;10523940;28;20214;-85
2022/11/14 01:04:04;;;;;;;5.77;5.17;;;;;;;2.76;58.68;100540.94;10524096;28;20449;-84
2022/11/14 01:09:45;;;;;;;6.20;5.37;;;;;;;2.66;59.09;100537.03;10514562;28;20203;-82
2022/11/14 01:15:25;;;;;;;5.67;5.07;;;;;;;2.38;59.97;100540.38;10531704;28;20219;-85
2022/11/14 01:21:09;;;;;;;5.57;4.90;;;;;;;2.49;59.33;100525.34;10525579;28;20223;-84
2022/11/14 01:26:49;;;;;;;6.03;5.43;;;;;;;2.56;59.28;100500.03;10520477;28;20512;-85
2022/11/14 01:32:30;;;;;;;6.17;5.10;;;;;;;2.52;59.42;100494.19;10517860;28;20607;-84
2022/11/14 01:38:13;;;;;;;6.67;5.03;;;;;;;2.10;59.78;100486.06;10518423;28;20226;-84
2022/11/14 01:43:54;;;;;;;7.07;5.03;;;;;;;1.84;60.74;100479.59;10515244;28;20198;-84
2022/11/14 01:49:40;;;;;;;6.07;5.47;;;;;;;1.96;60.90;100473.78;10522379;28;20198;-83
2022/11/14 01:55:21;;;;;;;7.33;5.60;;;;;;;2.10;60.95;100466.59;10530016;28;20650;-84
2022/11/14 02:01:02;;;;;;;6.27;5.20;;;;;;;1.87;60.54;100459.59;10522994;28;20198;-84
2022/11/14 02:06:43;;;;;;;6.83;5.67;;;;;;;1.70;60.81;100461.78;10517478;28;20194;-84
2022/11/14 02:12:24;;;;;;;6.20;5.37;;;;;;;1.66;61.15;100455.09;10518725;28;20199;-84
2022/11/14 02:18:04;;;;;;;8.50;5.60;;;;;;;1.31;62.32;100453.88;10523018;28;20218;-84
2022/11/14 02:23:45;;;;;;;6.43;5.40;;;;;;;1.60;60.58;100450.66;10531846;28;20219;-85
2022/11/14 02:29:25;;;;;;;7.33;5.77;;;;;;;1.62;61.10;100443.69;10525618;28;20210;-85
2022/11/14 02:35:06;;;;;;;5.83;5.27;;;;;;;1.60;61.22;100432.03;10522628;28;20214;-84
2022/11/14 02:40:47;;;;;;;6.50;5.43;;;;;;;1.04;63.23;100428.19;10514484;28;20203;-83
2022/11/14 02:46:27;;;;;;;8.57;5.57;;;;;;;1.45;61.08;100414.47;10503911;28;20190;-84
2022/11/14 02:52:08;;;;;;;5.80;5.07;;;;;;;1.71;61.45;100419.00;10525232;28;20628;-84
2022/11/14 02:57:48;;;;;;;6.70;5.13;;;;;;;1.36;61.32;100421.66;10525699;28;20223;-84
2022/11/14 03:03:29;;;;;;;6.83;5.80;;;;;;;1.25;62.02;100416.06;10522321;28;20477;-84
2022/11/14 03:09:10;;;;;;;6.23;5.63;;;;;;;1.46;61.18;100400.31;10515786;28;20469;-84
2022/11/14 03:14:50;;;;;;;6.53;5.47;;;;;;;1.05;61.55;100407.66;10515971;28;20210;-85
2022/11/14 03:20:31;;;;;;;6.53;5.27;;;;;;;1.38;61.38;100413.88;10510556;28;20195;-84
2022/11/14 03:26:13;;;;;;;7.70;5.50;;;;;;;1.21;61.11;100414.97;10523005;28;20190;-84
2022/11/14 03:31:53;;;;;;;6.17;5.30;;;;;;;1.38;60.26;100402.78;10516706;28;20199;-85
2022/11/14 03:37:34;;;;;;;6.63;5.93;;;;;;;1.20;60.96;100402.19;10524464;28;20214;-84
2022/11/14 03:43:16;;;;;;;6.50;5.80;;;;;;;1.18;60.43;100407.16;10525688;28;20202;-83
2022/11/14 03:48:56;;;;;;;7.23;5.63;;;;;;;1.17;61.26;100405.50;10522376;28;20198;-85
2022/11/14 03:54:37;;;;;;;6.27;5.50;;;;;;;1.34;60.88;100402.50;10518634;28;20199;-83
2022/11/14 04:00:19;;;;;;;7.57;6.47;;;;;;;1.20;61.28;100395.78;10527049;28;20207;-84
2022/11/14 04:05:59;;;;;;;6.83;5.90;;;;;;;1.34;60.62;100390.56;10525859;28;20195;-84
2022/11/14 04:11:40;;;;;;;7.13;6.10;;;;;;;1.22;61.75;100368.56;10520206;28;20199;-84
2022/11/14 04:17:21;;;;;;;7.53;6.37;;;;;;;1.15;61.06;100374.38;10529333;28;20214;-85
2022/11/14 04:23:01;;;;;;;8.13;6.43;;;;;;;1.15;62.07;100354.13;10520581;28;20207;-85
2022/11/14 04:28:42;;;;;;;7.27;6.57;;;;;;;1.07;62.15;100369.38;10517191;28;20214;-84
2022/11/14 04:34:23;;;;;;;8.33;6.93;;;;;;;1.28;61.24;100361.94;10522989;28;20203;-84
2022/11/14 04:40:04;;;;;;;10.37;6.83;;;;;;;1.20;60.98;100356.94;10528802;28;20202;-84
2022/11/14 04:45:45;;;;;;;8.83;6.83;;;;;;;1.14;61.91;100360.78;10532860;28;20258;-85
2022/11/14 04:51:25;;;;;;;7.90;6.93;;;;;;;1.14;61.19;100375.50;10523390;28;20191;-85
2022/11/14 04:57:06;;;;;;;10.00;7.63;;;;;;;1.18;61.77;100365.53;10526609;28;20487;-84
2022/11/14 05:02:47;;;;;;;8.57;6.97;;;;;;;0.93;61.60;100362.66;10518807;28;20203;-82
2022/11/14 05:08:28;;;;;;;8.40;7.43;;;;;;;0.91;62.50;100351.81;10531795;28;20195;-81
2022/11/14 05:14:08;;;;;;;8.10;7.10;;;;;;;0.65;62.74;100349.19;10535291;28;20198;-84
2022/11/14 05:19:49;;;;;;;7.57;6.60;;;;;;;0.95;62.32;100347.41;10515779;28;20222;-84
2022/11/14 05:25:29;;;;;;;7.93;7.13;;;;;;;0.87;61.61;100342.34;10535253;28;20222;-84
2022/11/14 05:31:18;;;;;;;7.10;6.40;;;;;;;0.62;62.37;100345.00;10546371;28;20242;-83
2022/11/14 05:36:58;;;;;;;8.17;6.70;;;;;;;0.47;62.77;100337.44;10522697;28;20206;-83
2022/11/14 05:42:39;;;;;;;8.53;6.70;;;;;;;0.72;62.28;100322.03;10531454;28;20203;-84
2022/11/14 05:48:19;;;;;;;10.10;7.93;;;;;;;0.88;61.41;100315.44;10531581;28;20194;-85
2022/11/14 05:53:59;;;;;;;8.67;6.77;;;;;;;0.79;61.93;100319.84;10523895;28;20191;-83
2022/11/14 05:59:40;;;;;;;9.43;6.73;;;;;;;0.63;61.42;100329.19;10518503;28;20627;-83
2022/11/14 06:05:21;;;;;;;12.83;7.23;;;;;;;0.73;60.94;100329.25;10525102;28;20194;-83
2022/11/14 06:11:07;;;;;;;10.87;6.60;;;;;;;0.76;61.24;100323.16;10525329;28;20194;-83
2022/11/14 06:16:48;;;;;;;6.90;6.00;;;;;;;0.77;61.06;100319.28;10521543;28;20643;-83
2022/11/14 06:22:28;;;;;;;9.03;6.87;;;;;;;0.42;61.88;100319.94;10532468;28;20208;-84
2022/11/14 06:28:09;;;;;;;8.33;6.50;;;;;;;0.66;61.18;100312.03;10519797;28;20638;-83
2022/11/14 06:33:50;;;;;;;16.70;6.27;;;;;;;0.68;62.44;100320.91;10531197;28;20195;-83
2022/11/14 06:39:30;;;;;;;9.07;6.30;;;;;;;0.51;63.27;100321.94;10510508;28;20203;-82
2022/11/14 06:45:11;;;;;;;10.67;6.70;;;;;;;0.25;63.37;100320.91;10524083;28;20207;-82
2022/11/14 06:50:52;;;;;;;10.97;6.97;;;;;;;0.71;61.71;100315.63;10515664;28;20190;-83
2022/11/14 06:56:34;;;;;;;12.80;8.17;;;;;;;0.46;62.46;100323.81;10529116;28;20223;-82
2022/11/14 07:02:14;;;;;;;14.57;7.33;;;;;;;0.54;62.52;100326.94;10503294;28;20476;-82
2022/11/14 07:07:56;;;;;;;11.87;7.17;;;;;;;1.09;60.60;100333.03;10505723;28;20580;-83
2022/11/14 07:13:37;;;;;;;11.67;6.87;;;;;;;0.74;62.19;100326.19;10512739;28;20476;-82
2022/11/14 07:19:17;;;;;;;8.67;7.27;;;;;;;0.93;61.92;100318.25;10529252;28;20211;-85
2022/11/14 07:24:58;;;;;;;10.40;6.90;;;;;;;0.90;61.76;100311.28;10519189;28;20219;-82
2022/11/14 07:30:40;;;;;;;8.47;6.63;;;;;;;1.05;61.88;100299.41;10526261;28;20227;-83
2022/11/14 07:36:22;;;;;;;8.73;6.90;;;;;;;1.15;61.13;100293.03;10507972;28;20214;-83
2022/11/14 07:42:02;;;;;;;11.73;7.93;;;;;;;1.49;60.99;100293.38;10503936;28;20210;-82
2022/11/14 07:47:43;;;;;;;13.23;8.17;;;;;;;1.82;60.98;100298.41;10508112;28;20222;-82
2022/11/14 07:53:24;;;;;;;13.10;7.67;;;;;;;1.89;60.79;100298.94;10526979;28;20195;-82
2022/11/14 07:59:04;;;;;;;13.30;6.83;;;;;;;2.24;60.00;100298.13;10522216;28;20297;-83
2022/11/14 08:04:45;;;;;;;21.13;7.50;;;;;;;2.34;60.51;100284.19;10511598;28;20211;-83
2022/11/14 08:10:26;;;;;;;14.80;7.17;;;;;;;2.82;59.09;100289.31;10521303;28;20199;-82
2022/11/14 08:16:09;;;;;;;8.57;7.17;;;;;;;2.69;58.37;100286.03;10520520;28;20210;-82
2022/11/14 08:21:50;;;;;;;9.47;7.27;;;;;;;2.32;58.80;100291.97;10512973;28;20222;-83
2022/11/14 08:27:30;;;;;;;13.00;7.90;;;;;;;3.05;58.87;100266.34;10522382;28;20223;-83
2022/11/14 08:33:11;;;;;;;12.63;8.23;;;;;;;3.32;57.34;100261.19;10532034;28;20602;-83
2022/11/14 08:38:52;;;;;;;13.00;7.37;;;;;;;3.73;56.50;100252.50;10539370;28;20214;-83
2022/11/14 08:44:32;;;;;;;11.70;8.07;;;;;;;4.02;57.63;100258.97;10524030;28;20195;-82
2022/11/14 08:50:13;;;;;;;9.80;7.63;;;;;;;4.36;56.83;100269.22;10520074;28;20496;-83
2022/11/14 08:55:54;;;;;;;9.97;7.27;;;;;;;4.55;55.93;100272.91;10510487;28;20199;-83
2022/11/14 09:01:34;;;;;;;11.30;7.13;;;;;;;4.81;56.00;100271.47;10539288;28;20199;-83
2022/11/14 09:07:15;;;;;;;11.07;7.63;;;;;;;4.97;55.76;100262.91;10521198;28;20461;-84
2022/11/14 09:12:57;;;;;;;12.33;8.10;;;;;;;5.63;54.46;100270.34;10506759;28;20450;-83
2022/11/14 09:18:38;;;;;;;14.53;8.80;;;;;;;5.63;54.56;100270.34;10516603;28;20215;-84
2022/11/14 09:24:18;;;;;;;9.90;8.90;;;;;;;5.83;53.03;100261.63;10507804;28;20509;-84
2022/11/14 09:29:59;;;;;;;11.63;8.77;;;;;;;5.47;54.49;100267.78;10543711;28;20642;-82
2022/11/14 09:35:40;;;;;;;10.97;8.53;;;;;;;5.30;54.11;100256.31;10515724;28;20207;-82
2022/11/14 09:41:39;;;;;;;16.17;9.77;;;;;;;5.77;54.29;100265.63;10513357;28;20203;-83
2022/11/14 09:47:23;;;;;;;13.73;9.97;;;;;;;4.74;56.19;100281.34;10538019;28;20595;-81
2022/11/14 09:53:09;;;;;;;13.73;10.07;;;;;;;5.70;54.27;100260.44;10534418;28;20201;-83
2022/11/14 09:58:49;;;;;;;12.53;10.33;;;;;;;5.37;54.28;100256.75;10515210;28;20283;-83
2022/11/14 10:04:43;;;;;;;14.57;10.27;;;;;;;5.60;54.92;100255.00;10514849;28;20550;-82
2022/11/14 10:10:37;;;;;;;14.63;9.83;;;;;;;4.81;56.35;100260.31;10549534;28;20264;-83
2022/11/14 10:16:18;;;;;;;13.67;11.07;;;;;;;5.03;56.21;100256.94;10504362;28;20219;-84
2022/11/14 10:22:21;;;;;;;14.27;11.23;;;;;;;4.95;57.71;100254.81;10513483;28;20264;-84
2022/11/14 10:28:02;;;;;;;12.63;9.77;;;;;;;5.04;56.82;100260.56;10541766;28;20283;-83
2022/11/14 10:34:04;;;;;;;13.20;9.67;;;;;;;5.28;56.28;100246.56;10548139;28;20198;-82
2022/11/14 10:39:49;;;;;;;13.83;9.87;;;;;;;6.13;53.66;100235.91;10528218;28;20496;-83
2022/11/14 10:45:56;;;;;;;12.93;9.43;;;;;;;5.21;56.02;100263.72;10503880;28;20202;-83
2022/11/14 10:51:39;;;;;;;11.03;8.50;;;;;;;5.36;56.28;100249.53;10543313;28;20203;-83
2022/11/14 10:57:21;;;;;;;12.20;8.80;;;;;;;6.19;54.87;100262.66;10514047;28;20214;-81
2022/11/14 11:03:01;;;;;;;14.80;10.20;;;;;;;6.25;54.59;100239.03;10528472;28;20502;-84
2022/11/14 11:14:43;;;;;;;12.07;9.70;;;;;;;6.85;52.89;100202.53;10522845;28;20251;-84
2022/11/14 11:20:33;;;;;;;12.83;9.70;;;;;;;6.44;54.92;100196.13;10508611;28;20230;-83
2022/11/14 11:26:20;;;;;;;14.10;10.37;;;;;;;6.62;53.37;100184.00;10510973;28;20190;-84
2022/11/14 11:32:01;;;;;;;13.60;10.17;;;;;;;6.78;51.35;100164.91;10522263;28;20255;-84
2022/11/14 11:37:48;;;;;;;12.80;9.77;;;;;;;7.02;51.80;100154.25;10526052;28;20245;-82
2022/11/14 11:43:35;;;;;;;9.73;8.00;;;;;;;6.74;52.46;100139.47;10520037;28;20195;-83
2022/11/14 11:49:29;;;;;;;11.07;8.80;;;;;;;6.76;53.08;100142.81;10509388;28;20202;-84
2022/11/14 11:55:19;;;;;;;11.00;8.33;;;;;;;6.96;52.13;100135.88;10526486;28;20198;-82
2022/11/14 12:01:00;;;;;;;10.50;8.40;;;;;;;6.17;55.22;100130.59;10519616;28;20210;-82
2022/11/14 12:06:47;;;;;;;11.87;8.40;;;;;;;6.26;55.52;100123.16;10501647;28;20187;-82
2022/11/14 12:12:43;;;;;;;10.97;8.00;;;;;;;6.03;56.08;100110.16;10529385;28;20199;-82
2022/11/14 12:18:53;;;;;;;9.33;7.30;;;;;;;6.35;55.67;100139.19;10507802;28;20241;-81
2022/11/14 12:24:44;;;;;;;9.00;7.53;;;;;;;6.12;56.07;100139.09;10501544;28;20634;-81
2022/11/14 12:30:26;;;;;;;8.10;6.60;;;;;;;6.47;55.62;100139.53;10502445;28;20231;-82
2022/11/14 12:36:11;;;;;;;8.93;7.13;;;;;;;6.58;55.42;100135.34;10522562;28;20198;-82
2022/11/14 12:42:02;;;;;;;10.50;7.37;;;;;;;6.75;55.18;100135.53;10518126;28;20202;-81
2022/11/14 12:48:21;;;;;;;8.10;6.10;;;;;;;6.98;54.53;100120.41;10522651;28;20468;-82
2022/11/14 12:54:02;;;;;;;8.97;7.03;;;;;;;6.85;55.49;100123.28;10531331;28;20199;-83
2022/11/14 12:59:49;;;;;;;8.97;7.10;;;;;;;7.10;54.72;100130.22;10517578;28;20496;-82
2022/11/14 13:05:54;;;;;;;9.07;7.27;;;;;;;6.96;55.82;100114.31;10536432;28;20595;-82
2022/11/14 13:23:40;;;;;;;8.73;6.60;;;;;;;7.63;54.53;100082.63;10528514;28;20214;-83
2022/11/14 13:29:39;;;;;;;7.67;6.70;;;;;;;7.76;54.06;100069.66;10533674;28;20492;-83
2022/11/14 13:35:40;;;;;;;8.37;6.93;;;;;;;7.29;55.50;100078.47;10535042;28;20198;-83
2022/11/14 13:41:56;;;;;;;8.40;6.77;;;;;;;7.39;54.77;100088.56;10508765;28;20222;-83
2022/11/14 13:47:45;;;;;;;10.07;6.90;;;;;;;6.91;56.54;100100.44;10524412;28;20590;-82
2022/11/14 13:53:28;;;;;;;10.10;6.70;;;;;;;7.23;55.89;100084.50;10540216;28;20492;-84
2022/11/14 13:59:16;;;;;;;7.43;6.10;;;;;;;7.28;55.31;100088.00;10525121;28;20206;-82
2022/11/14 14:05:20;;;;;;;9.13;6.40;;;;;;;7.81;55.10;100050.72;10516640;28;20226;-84
2022/11/14 14:11:12;;;;;;;9.17;7.73;;;;;;;6.96;56.24;100047.06;10530476;28;20194;-82
2022/11/14 14:17:14;;;;;;;7.83;6.73;;;;;;;7.17;57.29;100024.13;10513794;28;20587;-83
2022/11/14 14:23:01;;;;;;;9.97;7.17;;;;;;;7.11;56.49;100025.41;10513035;28;20219;-84
2022/11/14 14:28:55;;;;;;;10.07;7.27;;;;;;;7.20;56.61;100048.69;10515406;28;20214;-82
2022/11/14 14:34:35;;;;;;;8.63;6.60;;;;;;;6.77;56.92;100043.63;10523695;28;20207;-82
2022/11/14 14:40:28;;;;;;;7.57;6.27;;;;;;;6.41;58.30;100052.00;10520935;28;20222;-82
2022/11/14 14:46:08;;;;;;;8.13;6.67;;;;;;;6.49;57.93;100044.84;10522945;28;20199;-82
2022/11/14 14:51:49;;;;;;;9.10;6.90;;;;;;;6.44;57.88;100044.97;10520532;28;20194;-82
2022/11/14 14:57:30;;;;;;;8.30;6.40;;;;;;;6.52;58.11;100027.44;10521194;28;20215;-83
2022/11/14 15:03:10;;;;;;;8.93;6.17;;;;;;;6.23;58.53;100017.41;10528560;28;20190;-82
2022/11/14 15:08:50;;;;;;;11.03;6.87;;;;;;;6.50;58.43;100015.72;10525697;28;20500;-81
2022/11/14 15:14:32;;;;;;;9.00;6.90;;;;;;;5.93;59.95;100009.69;10516722;28;20221;-83
2022/11/14 15:20:26;;;;;;;11.00;7.33;;;;;;;6.30;58.46;99995.41;10510144;28;20218;-82
2022/11/14 15:26:16;;;;;;;9.20;7.20;;;;;;;6.62;58.34;99993.59;10522359;28;20200;-82
2022/11/14 15:31:58;;;;;;;9.17;6.83;;;;;;;6.74;57.41;100005.03;10509965;28;20194;-81
2022/11/14 15:38:18;;;;;;;11.40;7.50;;;;;;;6.71;57.28;100008.47;10519740;28;20222;-81
2022/11/14 15:44:01;;;;;;;10.07;7.03;;;;;;;6.00;59.34;100004.50;10524989;28;20203;-81
2022/11/14 15:49:58;;;;;;;10.03;7.60;;;;;;;6.36;58.54;100015.72;10513018;28;20452;-81
2022/11/14 15:55:38;;;;;;;9.60;6.67;;;;;;;6.32;57.93;100009.91;10516479;28;20539;-83
2022/11/14 16:01:22;;;;;;;12.10;7.50;;;;;;;6.61;56.53;100011.53;10507974;28;20210;-87
2022/11/14 16:07:03;;;;;;;15.10;10.97;;;;;;;6.46;57.86;100015.50;10520005;28;20221;-80
2022/11/14 16:12:44;;;;;;;7.63;6.80;;;;;;;7.10;55.69;99995.72;10515872;28;20272;-82
2022/11/14 16:18:24;;;;;;;8.33;6.80;;;;;;;6.86;56.67;99996.88;10519099;28;20266;-82
2022/11/14 16:24:06;;;;;;;9.50;7.07;;;;;;;6.84;56.66;99999.19;10522260;28;20484;-82
2022/11/14 16:29:46;;;;;;;10.53;7.83;;;;;;;6.96;56.54;99979.81;10528817;28;20223;-84
2022/11/14 16:35:27;;;;;;;9.03;7.03;;;;;;;7.25;55.90;99978.50;10529015;28;20210;-80
2022/11/14 16:41:08;;;;;;;10.73;6.90;;;;;;;7.45;55.32;99974.31;10526777;28;20219;-82
2022/11/14 16:46:49;;;;;;;8.90;7.23;;;;;;;7.30;56.16;99975.56;10536401;28;20199;-82
2022/11/14 16:52:30;;;;;;;7.93;7.13;;;;;;;7.58;55.12;99968.59;10525721;28;20234;-80
2022/11/14 16:58:10;;;;;;;9.80;8.13;;;;;;;7.43;55.51;99966.22;10530753;28;20247;-83
2022/11/14 17:03:52;;;;;;;10.33;8.20;;;;;;;7.51;55.80;99957.00;10520375;28;20222;-81
2022/11/14 17:09:32;;;;;;;13.73;9.33;;;;;;;7.46;55.58;99951.53;10531357;28;20194;-82
2022/11/14 17:15:13;;;;;;;10.80;9.00;;;;;;;7.34;55.81;99951.31;10513447;28;20638;-82
2022/11/14 17:20:54;;;;;;;14.03;9.80;;;;;;;7.62;55.25;99949.97;10519898;28;20242;-83
2022/11/14 17:26:35;;;;;;;14.40;10.70;;;;;;;7.71;55.00;99950.00;10503165;28;20611;-82
2022/11/14 17:32:16;;;;;;;12.70;8.83;;;;;;;7.48;56.22;99952.03;10521433;28;20607;-81
2022/11/14 17:37:56;;;;;;;13.83;10.10;;;;;;;7.37;56.24;99945.91;10511436;28;20233;-82
2022/11/14 17:43:37;;;;;;;12.13;9.50;;;;;;;7.17;56.74;99945.66;10527094;28;20225;-82
2022/11/14 17:49:18;;;;;;;12.50;9.87;;;;;;;7.38;56.86;99941.13;10520593;28;20231;-81
2022/11/14 17:54:58;;;;;;;13.53;9.40;;;;;;;7.07;57.44;99941.13;10525484;28;20672;-82
2022/11/14 18:00:39;;;;;;;13.73;10.00;;;;;;;6.59;58.15;99938.22;10517539;28;20253;-81
2022/11/14 18:06:20;;;;;;;11.97;9.27;;;;;;;6.42;58.94;99936.09;10518457;28;20611;-82
2022/11/14 18:12:01;;;;;;;8.30;7.27;;;;;;;6.65;57.88;99934.16;10520080;28;20239;-82
2022/11/14 18:17:42;;;;;;;9.90;8.17;;;;;;;6.47;58.74;99943.56;10520622;28;20222;-82
2022/11/14 18:23:24;;;;;;;10.47;8.53;;;;;;;6.70;58.20;99934.00;10510561;28;20247;-83
2022/11/14 18:29:04;;;;;;;10.53;8.27;;;;;;;6.58;58.47;99928.16;10525007;28;20246;-82
2022/11/14 18:34:45;;;;;;;10.57;9.00;;;;;;;6.46;59.10;99930.69;10515475;28;20517;-82
2022/11/14 18:40:25;;;;;;;12.43;9.53;;;;;;;6.26;60.25;99932.84;10506303;28;20245;-82
2022/11/14 18:46:08;;;;;;;11.87;9.03;;;;;;;6.32;59.75;99931.56;10504412;28;20198;-80
2022/11/14 18:51:49;;;;;;;11.33;9.00;;;;;;;6.27;60.08;99928.91;10516160;28;20222;-81
2022/11/14 18:57:29;;;;;;;14.50;9.77;;;;;;;6.27;59.82;99926.09;10515114;28;20221;-81
2022/11/14 19:03:10;;;;;;;13.33;10.60;;;;;;;6.07;60.66;99929.38;10509969;28;20238;-80
2022/11/14 19:08:58;;;;;;;9.87;8.73;;;;;;;5.83;61.06;99924.03;10521970;28;20226;-82
2022/11/14 19:14:38;;;;;;;14.40;10.67;;;;;;;5.64;62.58;99931.72;10543961;28;20226;-81
2022/11/14 19:20:19;;;;;;;13.17;10.20;;;;;;;5.83;61.87;99921.25;10525285;28;20790;-80
2022/11/14 19:26:00;;;;;;;16.40;10.30;;;;;;;5.36;62.77;99933.72;10528509;28;20229;-79
2022/11/14 19:31:42;;;;;;;9.43;8.27;;;;;;;5.92;61.48;99929.72;10533473;28;20225;-80
2022/11/14 19:37:23;;;;;;;13.03;10.13;;;;;;;5.66;62.08;99928.63;10506759;28;20206;-81
2022/11/14 19:43:06;;;;;;;9.90;8.13;;;;;;;5.17;63.17;99932.97;10493263;28;20221;-80
2022/11/14 19:48:47;;;;;;;10.43;9.17;;;;;;;5.63;61.33;99929.25;10494481;28;20603;-80
2022/11/14 19:54:28;;;;;;;9.37;7.63;;;;;;;5.61;60.99;99931.53;10505916;28;20520;-81
2022/11/14 20:00:09;;;;;;;11.33;8.97;;;;;;;5.83;60.44;99937.19;10513703;28;20246;-81
2022/11/14 20:05:50;;;;;;;10.90;8.40;;;;;;;5.63;60.29;99930.09;10505146;28;20226;-81
2022/11/14 20:11:31;;;;;;;10.17;8.40;;;;;;;5.36;61.09;99936.53;10506918;28;20230;-82
2022/11/14 20:17:11;;;;;;;11.30;9.60;;;;;;;5.55;60.28;99934.44;10516029;28;20215;-82
2022/11/14 20:22:52;;;;;;;18.07;12.23;;;;;;;5.59;60.34;99938.25;10497019;28;20666;-80
2022/11/14 20:28:33;;;;;;;12.33;9.73;;;;;;;5.28;61.09;99944.78;10496367;28;21499;-81
2022/11/14 20:34:14;;;;;;;9.67;8.47;;;;;;;5.17;61.96;99953.38;10491010;28;20229;-80
2022/11/14 20:39:55;;;;;;;10.13;8.37;;;;;;;5.46;61.14;99944.69;10505784;28;20242;-81
2022/11/14 20:45:36;;;;;;;8.73;7.47;;;;;;;5.16;61.70;99960.09;10522335;28;20226;-81
2022/11/14 20:51:17;;;;;;;9.97;8.07;;;;;;;5.26;61.41;99961.03;10502931;28;20545;-81
2022/11/14 20:56:58;;;;;;;9.17;7.63;;;;;;;5.20;60.96;99963.09;10501979;28;20227;-82
2022/11/14 21:02:38;;;;;;;11.20;8.43;;;;;;;5.17;61.94;99960.91;10508593;28;20246;-82
2022/11/14 21:08:19;;;;;;;10.57;8.60;;;;;;;5.34;60.98;99960.31;10508406;28;20223;-81
2022/11/14 21:14:03;;;;;;;10.23;8.27;;;;;;;5.28;61.31;99962.38;10518924;28;20234;-81
2022/11/14 21:19:44;;;;;;;11.93;9.50;;;;;;;5.52;60.51;99948.19;10527763;28;20232;-82
2022/11/14 21:25:24;;;;;;;8.77;7.80;;;;;;;5.53;60.57;99944.25;10509920;28;20210;-81
2022/11/14 21:31:41;;;;;;;10.27;8.50;;;;;;;5.93;59.17;99948.16;10511675;28;20223;-82
2022/11/14 21:37:21;;;;;;;10.07;7.17;;;;;;;5.58;60.83;99949.75;10507021;28;20206;-82
2022/11/14 21:43:02;;;;;;;10.37;8.07;;;;;;;5.50;61.00;99939.31;10513600;28;20227;-81
2022/11/14 21:48:44;;;;;;;9.93;8.07;;;;;;;5.58;60.97;99936.59;10511023;28;20195;-81
2022/11/14 21:54:25;;;;;;;11.37;9.30;;;;;;;5.75;60.80;99937.94;10509918;28;20194;-81
2022/11/14 22:00:06;;;;;;;10.80;8.23;;;;;;;5.87;60.17;99924.25;10544027;28;20214;-82
2022/11/14 22:05:47;;;;;;;9.93;8.27;;;;;;;6.29;59.70;99926.59;10515888;28;20199;-81
2022/11/14 22:11:28;;;;;;;9.90;7.27;;;;;;;6.00;60.09;99917.78;10516109;28;20187;-82
2022/11/14 22:17:08;;;;;;;8.53;7.07;;;;;;;6.28;60.62;99916.53;10526644;28;20199;-82
2022/11/14 22:22:52;;;;;;;10.93;7.67;;;;;;;6.59;61.04;99916.63;10518669;28;20226;-82
2022/11/14 22:28:33;;;;;;;10.50;7.93;;;;;;;6.19;61.90;99904.44;10523044;28;20655;-82
2022/11/14 22:34:14;;;;;;;9.33;7.47;;;;;;;6.18;63.27;99901.97;10517558;28;20207;-82
2022/11/14 22:39:54;;;;;;;8.37;7.57;;;;;;;6.35;63.13;99915.28;10536551;28;20214;-82
2022/11/14 22:45:35;;;;;;;8.90;7.13;;;;;;;6.49;63.62;99907.66;10519191;28;20199;-82
2022/11/14 22:51:18;;;;;;;7.93;6.43;;;;;;;6.43;64.82;99914.53;10526751;28;20191;-82
2022/11/14 22:56:59;;;;;;;8.00;6.50;;;;;;;6.68;64.71;99916.69;10509692;28;20190;-82
2022/11/14 23:02:39;;;;;;;7.80;6.60;;;;;;;6.97;63.33;99911.41;10530124;28;20222;-82
2022/11/14 23:08:20;;;;;;;8.03;6.67;;;;;;;7.07;64.96;99901.06;10529547;28;20673;-82
2022/11/14 23:14:00;;;;;;;8.63;5.80;;;;;;;7.02;64.10;99905.69;10529229;28;20187;-81
2022/11/14 23:19:41;;;;;;;8.37;6.17;;;;;;;7.25;65.74;99906.44;10509829;28;20512;-82
2022/11/14 23:25:22;;;;;;;7.30;5.80;;;;;;;6.82;67.55;99909.03;10528242;28;20222;-82
2022/11/14 23:31:03;;;;;;;7.43;5.90;;;;;;;6.73;67.70;99904.53;10523610;28;20222;-82
2022/11/14 23:36:44;;;;;;;7.80;5.47;;;;;;;6.96;67.72;99895.75;10535516;28;20218;-82
2022/11/14 23:42:25;;;;;;;7.10;5.83;;;;;;;6.90;67.44;99888.66;10503368;28;20254;-82
2022/11/14 23:48:06;;;;;;;9.90;6.27;;;;;;;7.02;68.85;99883.28;10514163;28;20203;-82
2022/11/14 23:53:46;;;;;;;8.97;5.87;;;;;;;7.20;69.61;99877.72;10513808;28;20290;-82
2022/11/14 23:59:26;;;;;;;9.27;5.77;;;;;;;7.31;69.53;99873.50;10514398;28;20204;-82
